sensor_id;sensor_type;location;lat;lon;timestamp;pressure;altitude;pressure_sealevel;temperature;humidity
40117;BME280;25829;50.228;18.936;2023-05-29T00:01:00;98761.16;;;10.23;58.98
40117;BME280;25829;50.228;18.936;2023-05-29T00:04:01;98761.13;;;10.16;59.03
40117;BME280;25829;50.228;18.936;2023-05-29T00:07:02;98757.66;;;10.09;59.21
40117;BME280;25829;50.228;18.936;2023-05-29T00:10:04;98754.97;;;10.02;59.58
40117;BME280;25829;50.228;18.936;2023-05-29T00:13:05;98754.16;;;9.95;59.89
40117;BME280;25829;50.228;18.936;2023-05-29T00:16:07;98751.72;;;9.94;60.10
40117;BME280;25829;50.228;18.936;2023-05-29T00:19:09;98750.88;;;9.93;60.18
40117;BME280;25829;50.228;18.936;2023-05-29T00:22:10;98747.66;;;9.91;59.92
40117;BME280;25829;50.228;18.936;2023-05-29T00:25:11;98743.78;;;9.87;60.21
40117;BME280;25829;50.228;18.936;2023-05-29T00:28:11;98738.69;;;9.85;60.10
40117;BME280;25829;50.228;18.936;2023-05-29T00:31:12;98741.53;;;9.84;60.20
40117;BME280;25829;50.228;18.936;2023-05-29T00:34:14;98735.03;;;9.80;60.30
40117;BME280;25829;50.228;18.936;2023-05-29T00:37:15;98734.19;;;9.73;60.12
40117;BME280;25829;50.228;18.936;2023-05-29T00:40:16;98728.69;;;9.68;60.50
40117;BME280;25829;50.228;18.936;2023-05-29T00:43:16;98737.72;;;9.58;60.51
40117;BME280;25829;50.228;18.936;2023-05-29T00:46:17;98734.69;;;9.55;60.67
40117;BME280;25829;50.228;18.936;2023-05-29T00:49:22;98735.25;;;9.50;60.57
40117;BME280;25829;50.228;18.936;2023-05-29T00:52:24;98741.50;;;9.43;60.92
40117;BME280;25829;50.228;18.936;2023-05-29T00:55:25;98737.00;;;9.36;61.15
40117;BME280;25829;50.228;18.936;2023-05-29T00:58:27;98742.00;;;9.31;61.60
40117;BME280;25829;50.228;18.936;2023-05-29T01:01:28;98738.38;;;9.32;61.36
40117;BME280;25829;50.228;18.936;2023-05-29T01:04:31;98735.91;;;9.31;61.40
40117;BME280;25829;50.228;18.936;2023-05-29T01:07:35;98735.06;;;9.24;61.21
40117;BME280;25829;50.228;18.936;2023-05-29T01:10:36;98734.44;;;9.22;61.29
40117;BME280;25829;50.228;18.936;2023-05-29T01:13:38;98734.03;;;9.18;61.37
40117;BME280;25829;50.228;18.936;2023-05-29T01:20:27;98732.56;;;9.15;61.91
40117;BME280;25829;50.228;18.936;2023-05-29T01:24:01;98734.41;;;9.15;61.48
40117;BME280;25829;50.228;18.936;2023-05-29T01:27:09;98737.16;;;9.07;61.62
40117;BME280;25829;50.228;18.936;2023-05-29T01:30:14;98731.88;;;9.00;62.16
40117;BME280;25829;50.228;18.936;2023-05-29T01:33:15;98736.06;;;8.95;61.87
40117;BME280;25829;50.228;18.936;2023-05-29T01:36:16;98732.78;;;8.92;61.71
40117;BME280;25829;50.228;18.936;2023-05-29T01:39:17;98731.38;;;8.90;61.94
40117;BME280;25829;50.228;18.936;2023-05-29T01:42:19;98730.38;;;8.91;61.68
40117;BME280;25829;50.228;18.936;2023-05-29T01:45:20;98734.00;;;8.90;61.59
40117;BME280;25829;50.228;18.936;2023-05-29T01:48:22;98736.00;;;8.88;61.47
40117;BME280;25829;50.228;18.936;2023-05-29T01:51:23;98728.06;;;8.81;61.56
40117;BME280;25829;50.228;18.936;2023-05-29T01:54:24;98729.06;;;8.80;61.97
40117;BME280;25829;50.228;18.936;2023-05-29T01:57:25;98724.41;;;8.82;61.93
40117;BME280;25829;50.228;18.936;2023-05-29T02:00:26;98726.88;;;8.84;61.42
40117;BME280;25829;50.228;18.936;2023-05-29T02:03:27;98725.41;;;8.81;61.62
40117;BME280;25829;50.228;18.936;2023-05-29T02:06:34;98726.22;;;8.82;61.65
40117;BME280;25829;50.228;18.936;2023-05-29T02:09:35;98716.94;;;8.79;61.34
40117;BME280;25829;50.228;18.936;2023-05-29T02:12:36;98714.66;;;8.76;61.49
40117;BME280;25829;50.228;18.936;2023-05-29T02:15:37;98711.16;;;8.69;61.53
40117;BME280;25829;50.228;18.936;2023-05-29T02:18:38;98714.56;;;8.63;61.99
40117;BME280;25829;50.228;18.936;2023-05-29T02:21:40;98712.66;;;8.57;61.98
40117;BME280;25829;50.228;18.936;2023-05-29T02:24:42;98721.28;;;8.51;62.47
40117;BME280;25829;50.228;18.936;2023-05-29T02:27:42;98716.81;;;8.44;62.36
40117;BME280;25829;50.228;18.936;2023-05-29T02:30:43;98713.91;;;8.39;62.46
40117;BME280;25829;50.228;18.936;2023-05-29T02:33:44;98714.56;;;8.41;62.19
40117;BME280;25829;50.228;18.936;2023-05-29T02:36:44;98716.81;;;8.44;62.76
40117;BME280;25829;50.228;18.936;2023-05-29T02:39:45;98719.44;;;8.44;63.13
40117;BME280;25829;50.228;18.936;2023-05-29T02:46:10;98707.41;;;8.35;62.51
40117;BME280;25829;50.228;18.936;2023-05-29T02:49:10;98705.53;;;8.29;62.72
40117;BME280;25829;50.228;18.936;2023-05-29T02:52:11;98697.56;;;8.23;62.92
40117;BME280;25829;50.228;18.936;2023-05-29T02:55:12;98698.38;;;8.23;62.77
40117;BME280;25829;50.228;18.936;2023-05-29T02:58:13;98696.94;;;8.20;62.79
40117;BME280;25829;50.228;18.936;2023-05-29T03:01:14;98697.03;;;8.12;63.18
40117;BME280;25829;50.228;18.936;2023-05-29T03:04:15;98687.09;;;8.08;63.32
40117;BME280;25829;50.228;18.936;2023-05-29T03:07:18;98697.63;;;8.08;63.60
40117;BME280;25829;50.228;18.936;2023-05-29T03:10:19;98690.91;;;8.05;63.75
40117;BME280;25829;50.228;18.936;2023-05-29T03:13:20;98694.78;;;8.09;63.72
40117;BME280;25829;50.228;18.936;2023-05-29T03:16:36;98703.75;;;8.15;63.79
40117;BME280;25829;50.228;18.936;2023-05-29T03:19:39;98698.75;;;8.20;63.82
40117;BME280;25829;50.228;18.936;2023-05-29T03:22:40;98707.91;;;8.24;63.94
40117;BME280;25829;50.228;18.936;2023-05-29T03:25:41;98697.00;;;8.27;63.50
40117;BME280;25829;50.228;18.936;2023-05-29T03:28:42;98704.72;;;8.29;63.16
40117;BME280;25829;50.228;18.936;2023-05-29T03:31:44;98701.06;;;8.30;63.36
40117;BME280;25829;50.228;18.936;2023-05-29T03:34:47;98694.00;;;8.30;63.06
40117;BME280;25829;50.228;18.936;2023-05-29T03:37:48;98704.13;;;8.33;63.36
40117;BME280;25829;50.228;18.936;2023-05-29T03:40:49;98707.41;;;8.35;63.60
40117;BME280;25829;50.228;18.936;2023-05-29T03:43:50;98712.84;;;8.34;63.19
40117;BME280;25829;50.228;18.936;2023-05-29T03:46:54;98709.41;;;8.33;63.84
40117;BME280;25829;50.228;18.936;2023-05-29T03:49:55;98708.22;;;8.36;63.74
40117;BME280;25829;50.228;18.936;2023-05-29T03:52:56;98706.22;;;8.38;63.37
40117;BME280;25829;50.228;18.936;2023-05-29T03:55:57;98710.34;;;8.47;63.66
40117;BME280;25829;50.228;18.936;2023-05-29T03:58:58;98706.16;;;8.53;63.74
40117;BME280;25829;50.228;18.936;2023-05-29T04:01:59;98704.19;;;8.61;63.69
40117;BME280;25829;50.228;18.936;2023-05-29T04:04:59;98701.47;;;8.69;63.83
40117;BME280;25829;50.228;18.936;2023-05-29T04:08:00;98705.97;;;8.76;63.66
40117;BME280;25829;50.228;18.936;2023-05-29T04:11:01;98713.03;;;8.75;63.84
40117;BME280;25829;50.228;18.936;2023-05-29T04:14:04;98709.41;;;8.76;64.19
40117;BME280;25829;50.228;18.936;2023-05-29T04:17:05;98719.59;;;8.86;64.05
40117;BME280;25829;50.228;18.936;2023-05-29T04:20:06;98717.66;;;8.95;64.24
40117;BME280;25829;50.228;18.936;2023-05-29T04:23:09;98723.78;;;9.02;64.01
40117;BME280;25829;50.228;18.936;2023-05-29T04:26:10;98719.00;;;9.12;64.41
40117;BME280;25829;50.228;18.936;2023-05-29T04:29:12;98728.97;;;9.23;64.28
40117;BME280;25829;50.228;18.936;2023-05-29T04:32:15;98710.03;;;9.34;64.11
40117;BME280;25829;50.228;18.936;2023-05-29T04:35:16;98717.44;;;9.46;63.99
40117;BME280;25829;50.228;18.936;2023-05-29T04:38:27;98721.13;;;9.58;64.03
40117;BME280;25829;50.228;18.936;2023-05-29T04:41:29;98725.44;;;9.72;63.84
40117;BME280;25829;50.228;18.936;2023-05-29T04:44:33;98729.59;;;9.88;63.97
40117;BME280;25829;50.228;18.936;2023-05-29T04:47:33;98735.50;;;10.03;63.98
40117;BME280;25829;50.228;18.936;2023-05-29T04:50:34;98733.94;;;10.16;63.78
40117;BME280;25829;50.228;18.936;2023-05-29T04:53:40;98732.75;;;10.31;63.97
40117;BME280;25829;50.228;18.936;2023-05-29T04:56:42;98735.66;;;10.43;63.71
40117;BME280;25829;50.228;18.936;2023-05-29T04:59:47;98732.81;;;10.51;63.87
40117;BME280;25829;50.228;18.936;2023-05-29T05:02:49;98734.88;;;10.56;64.07
40117;BME280;25829;50.228;18.936;2023-05-29T05:05:50;98739.13;;;10.64;64.38
40117;BME280;25829;50.228;18.936;2023-05-29T05:08:55;98740.53;;;10.73;64.79
40117;BME280;25829;50.228;18.936;2023-05-29T05:11:56;98737.75;;;10.81;65.01
40117;BME280;25829;50.228;18.936;2023-05-29T05:14:58;98738.19;;;10.91;64.33
40117;BME280;25829;50.228;18.936;2023-05-29T05:17:58;98739.00;;;11.05;63.25
40117;BME280;25829;50.228;18.936;2023-05-29T05:20:59;98735.72;;;11.16;62.97
40117;BME280;25829;50.228;18.936;2023-05-29T05:24:00;98733.06;;;11.29;62.50
40117;BME280;25829;50.228;18.936;2023-05-29T05:27:01;98733.25;;;11.48;62.21
40117;BME280;25829;50.228;18.936;2023-05-29T05:30:03;98728.09;;;11.66;62.20
40117;BME280;25829;50.228;18.936;2023-05-29T05:33:04;98735.38;;;11.84;62.14
40117;BME280;25829;50.228;18.936;2023-05-29T05:36:06;98746.50;;;11.99;61.69
40117;BME280;25829;50.228;18.936;2023-05-29T05:39:08;98736.72;;;12.13;61.66
40117;BME280;25829;50.228;18.936;2023-05-29T05:42:10;98741.72;;;12.28;60.62
40117;BME280;25829;50.228;18.936;2023-05-29T05:45:24;98738.59;;;12.44;60.33
40117;BME280;25829;50.228;18.936;2023-05-29T05:48:26;98741.75;;;12.60;59.64
40117;BME280;25829;50.228;18.936;2023-05-29T05:51:29;98743.88;;;12.76;59.61
40117;BME280;25829;50.228;18.936;2023-05-29T05:54:32;98744.81;;;12.88;58.75
40117;BME280;25829;50.228;18.936;2023-05-29T05:57:35;98746.53;;;13.01;58.38
40117;BME280;25829;50.228;18.936;2023-05-29T06:00:36;98738.91;;;13.11;57.82
40117;BME280;25829;50.228;18.936;2023-05-29T06:03:37;98750.84;;;13.27;57.60
40117;BME280;25829;50.228;18.936;2023-05-29T06:06:42;98746.59;;;13.45;57.07
40117;BME280;25829;50.228;18.936;2023-05-29T06:09:43;98749.50;;;13.61;56.49
40117;BME280;25829;50.228;18.936;2023-05-29T06:12:45;98746.84;;;13.80;55.85
40117;BME280;25829;50.228;18.936;2023-05-29T06:15:54;98760.09;;;13.98;55.39
40117;BME280;25829;50.228;18.936;2023-05-29T06:18:55;98762.59;;;14.11;54.78
40117;BME280;25829;50.228;18.936;2023-05-29T06:21:56;98765.47;;;14.28;54.86
40117;BME280;25829;50.228;18.936;2023-05-29T06:24:57;98760.94;;;14.47;53.95
40117;BME280;25829;50.228;18.936;2023-05-29T06:28:02;98771.44;;;14.84;53.92
40117;BME280;25829;50.228;18.936;2023-05-29T06:31:06;98766.44;;;15.29;53.89
40117;BME280;25829;50.228;18.936;2023-05-29T06:34:07;98765.63;;;15.76;53.28
40117;BME280;25829;50.228;18.936;2023-05-29T06:37:08;98765.16;;;16.19;52.78
40117;BME280;25829;50.228;18.936;2023-05-29T06:40:10;98768.19;;;16.51;51.99
40117;BME280;25829;50.228;18.936;2023-05-29T06:43:11;98765.88;;;16.72;51.55
40117;BME280;25829;50.228;18.936;2023-05-29T06:46:13;98771.16;;;16.84;50.78
40117;BME280;25829;50.228;18.936;2023-05-29T06:49:14;98776.03;;;16.87;50.05
40117;BME280;25829;50.228;18.936;2023-05-29T06:52:26;98768.81;;;16.87;49.90
40117;BME280;25829;50.228;18.936;2023-05-29T06:55:45;98774.69;;;16.89;49.55
40117;BME280;25829;50.228;18.936;2023-05-29T06:58:46;98779.56;;;16.92;49.18
40117;BME280;25829;50.228;18.936;2023-05-29T07:01:48;98778.28;;;16.95;48.58
40117;BME280;25829;50.228;18.936;2023-05-29T07:04:49;98782.88;;;16.99;48.56
40117;BME280;25829;50.228;18.936;2023-05-29T07:07:50;98775.19;;;17.03;48.76
40117;BME280;25829;50.228;18.936;2023-05-29T07:10:51;98771.22;;;17.17;48.86
40117;BME280;25829;50.228;18.936;2023-05-29T07:13:57;98773.38;;;17.37;48.62
40117;BME280;25829;50.228;18.936;2023-05-29T07:17:05;98784.91;;;17.60;47.15
40117;BME280;25829;50.228;18.936;2023-05-29T07:20:07;98784.78;;;17.72;47.44
40117;BME280;25829;50.228;18.936;2023-05-29T07:23:09;98790.34;;;17.87;46.70
40117;BME280;25829;50.228;18.936;2023-05-29T07:26:10;98789.75;;;18.02;44.82
40117;BME280;25829;50.228;18.936;2023-05-29T07:29:11;98784.47;;;18.07;44.82
40117;BME280;25829;50.228;18.936;2023-05-29T07:32:13;98783.00;;;18.16;45.19
40117;BME280;25829;50.228;18.936;2023-05-29T07:35:14;98779.44;;;18.32;44.81
40117;BME280;25829;50.228;18.936;2023-05-29T07:38:19;98782.34;;;18.53;44.78
40117;BME280;25829;50.228;18.936;2023-05-29T07:41:22;98778.94;;;18.62;44.56
40117;BME280;25829;50.228;18.936;2023-05-29T07:44:26;98783.78;;;18.66;44.39
40117;BME280;25829;50.228;18.936;2023-05-29T07:47:27;98788.63;;;18.69;44.48
40117;BME280;25829;50.228;18.936;2023-05-29T07:50:28;98783.59;;;18.72;43.44
40117;BME280;25829;50.228;18.936;2023-05-29T07:53:31;98784.16;;;18.74;42.45
40117;BME280;25829;50.228;18.936;2023-05-29T07:56:36;98785.75;;;18.75;42.63
40117;BME280;25829;50.228;18.936;2023-05-29T07:59:43;98792.72;;;18.76;42.02
40117;BME280;25829;50.228;18.936;2023-05-29T08:02:44;98792.72;;;18.76;41.85
40117;BME280;25829;50.228;18.936;2023-05-29T08:06:06;98790.31;;;18.75;42.61
40117;BME280;25829;50.228;18.936;2023-05-29T08:09:11;98788.81;;;18.84;43.02
40117;BME280;25829;50.228;18.936;2023-05-29T08:12:12;98792.59;;;18.88;42.86
40117;BME280;25829;50.228;18.936;2023-05-29T08:15:38;98794.03;;;19.01;42.53
40117;BME280;25829;50.228;18.936;2023-05-29T08:18:39;98793.31;;;19.10;42.63
40117;BME280;25829;50.228;18.936;2023-05-29T08:22:00;98791.00;;;19.24;42.64
40117;BME280;25829;50.228;18.936;2023-05-29T08:25:01;98783.41;;;19.43;42.79
40117;BME280;25829;50.228;18.936;2023-05-29T08:28:05;98776.09;;;19.71;42.46
40117;BME280;25829;50.228;18.936;2023-05-29T08:31:06;98777.81;;;19.92;41.36
40117;BME280;25829;50.228;18.936;2023-05-29T08:34:07;98785.94;;;20.18;41.05
40117;BME280;25829;50.228;18.936;2023-05-29T08:37:08;98792.25;;;20.54;39.94
40117;BME280;25829;50.228;18.936;2023-05-29T08:40:09;98784.25;;;21.15;39.60
40117;BME280;25829;50.228;18.936;2023-05-29T08:43:23;98793.09;;;21.72;37.15
40117;BME280;25829;50.228;18.936;2023-05-29T08:46:26;98786.78;;;22.17;36.12
40117;BME280;25829;50.228;18.936;2023-05-29T08:49:29;98790.28;;;22.68;38.02
40117;BME280;25829;50.228;18.936;2023-05-29T08:52:34;98774.16;;;23.36;38.07
40117;BME280;25829;50.228;18.936;2023-05-29T08:55:38;98779.25;;;24.15;37.14
40117;BME280;25829;50.228;18.936;2023-05-29T08:58:48;98781.13;;;24.76;36.64
40117;BME280;25829;50.228;18.936;2023-05-29T09:01:51;98779.28;;;25.23;36.43
40117;BME280;25829;50.228;18.936;2023-05-29T09:04:54;98774.56;;;25.47;35.51
40117;BME280;25829;50.228;18.936;2023-05-29T09:07:57;98780.72;;;25.94;34.53
40117;BME280;25829;50.228;18.936;2023-05-29T09:10:58;98784.63;;;26.16;34.85
40117;BME280;25829;50.228;18.936;2023-05-29T09:13:59;98772.16;;;26.56;35.06
40117;BME280;25829;50.228;18.936;2023-05-29T09:17:04;98768.06;;;26.90;33.44
40117;BME280;25829;50.228;18.936;2023-05-29T09:20:14;98777.44;;;27.29;32.47
40117;BME280;25829;50.228;18.936;2023-05-29T09:23:18;98778.09;;;27.34;33.09
40117;BME280;25829;50.228;18.936;2023-05-29T09:26:31;98775.94;;;27.45;33.53
40117;BME280;25829;50.228;18.936;2023-05-29T09:29:32;98772.19;;;27.64;32.09
40117;BME280;25829;50.228;18.936;2023-05-29T09:32:34;98776.72;;;27.77;32.99
40117;BME280;25829;50.228;18.936;2023-05-29T09:35:39;98770.59;;;28.02;32.43
40117;BME280;25829;50.228;18.936;2023-05-29T09:38:45;98779.41;;;28.17;30.41
40117;BME280;25829;50.228;18.936;2023-05-29T09:41:53;98772.09;;;28.26;30.48
40117;BME280;25829;50.228;18.936;2023-05-29T09:44:54;98775.88;;;28.16;31.09
40117;BME280;25829;50.228;18.936;2023-05-29T09:47:55;98771.22;;;28.08;31.21
40117;BME280;25829;50.228;18.936;2023-05-29T09:50:56;98768.63;;;27.86;31.28
40117;BME280;25829;50.228;18.936;2023-05-29T09:53:58;98771.66;;;27.53;32.42
40117;BME280;25829;50.228;18.936;2023-05-29T09:57:01;98777.75;;;27.05;30.96
40117;BME280;25829;50.228;18.936;2023-05-29T10:00:05;98776.88;;;26.37;31.16
40117;BME280;25829;50.228;18.936;2023-05-29T10:03:13;98784.22;;;25.81;32.11
40117;BME280;25829;50.228;18.936;2023-05-29T10:06:18;98781.06;;;25.46;32.25
40117;BME280;25829;50.228;18.936;2023-05-29T10:09:38;98775.38;;;25.15;32.46
40117;BME280;25829;50.228;18.936;2023-05-29T10:12:47;98764.03;;;24.99;33.06
40117;BME280;25829;50.228;18.936;2023-05-29T10:15:49;98761.94;;;24.77;33.00
40117;BME280;25829;50.228;18.936;2023-05-29T10:18:57;98769.53;;;24.57;32.11
40117;BME280;25829;50.228;18.936;2023-05-29T10:22:01;98766.81;;;24.19;31.39
40117;BME280;25829;50.228;18.936;2023-05-29T10:25:05;98770.72;;;23.83;31.72
40117;BME280;25829;50.228;18.936;2023-05-29T10:28:08;98775.63;;;23.52;32.06
40117;BME280;25829;50.228;18.936;2023-05-29T10:31:22;98775.66;;;23.18;29.77
40117;BME280;25829;50.228;18.936;2023-05-29T10:38:02;98775.72;;;22.74;33.45
40117;BME280;25829;50.228;18.936;2023-05-29T10:47:33;98751.75;;;22.82;34.04
40117;BME280;25829;50.228;18.936;2023-05-29T10:50:45;98759.19;;;22.91;33.27
40117;BME280;25829;50.228;18.936;2023-05-29T10:53:46;98760.28;;;22.90;33.44
40117;BME280;25829;50.228;18.936;2023-05-29T10:56:57;98757.34;;;22.86;32.61
40117;BME280;25829;50.228;18.936;2023-05-29T11:00:08;98756.59;;;22.80;33.39
40117;BME280;25829;50.228;18.936;2023-05-29T11:03:53;98751.25;;;22.75;33.11
40117;BME280;25829;50.228;18.936;2023-05-29T11:06:46;98749.19;;;22.57;33.61
40117;BME280;25829;50.228;18.936;2023-05-29T11:09:47;98749.84;;;22.33;33.64
40117;BME280;25829;50.228;18.936;2023-05-29T11:12:57;98752.16;;;22.06;33.58
40117;BME280;25829;50.228;18.936;2023-05-29T11:19:12;98746.06;;;21.75;34.42
40117;BME280;25829;50.228;18.936;2023-05-29T11:22:16;98740.69;;;21.80;34.43
40117;BME280;25829;50.228;18.936;2023-05-29T11:25:21;98739.91;;;21.74;34.09
40117;BME280;25829;50.228;18.936;2023-05-29T11:28:22;98746.66;;;21.56;33.50
40117;BME280;25829;50.228;18.936;2023-05-29T11:31:24;98740.00;;;21.38;33.04
40117;BME280;25829;50.228;18.936;2023-05-29T11:34:27;98745.09;;;21.35;33.95
40117;BME280;25829;50.228;18.936;2023-05-29T11:37:29;98744.28;;;21.39;34.35
40117;BME280;25829;50.228;18.936;2023-05-29T11:40:36;98742.69;;;21.43;34.05
40117;BME280;25829;50.228;18.936;2023-05-29T11:43:38;98751.53;;;21.39;32.81
40117;BME280;25829;50.228;18.936;2023-05-29T11:46:39;98740.28;;;21.32;33.84
40117;BME280;25829;50.228;18.936;2023-05-29T11:49:43;98743.75;;;21.32;33.89
40117;BME280;25829;50.228;18.936;2023-05-29T11:52:46;98736.78;;;21.31;33.45
40117;BME280;25829;50.228;18.936;2023-05-29T11:55:47;98732.22;;;21.37;34.04
40117;BME280;25829;50.228;18.936;2023-05-29T11:58:55;98735.16;;;21.45;34.16
40117;BME280;25829;50.228;18.936;2023-05-29T12:01:57;98731.94;;;21.49;34.71
40117;BME280;25829;50.228;18.936;2023-05-29T12:05:07;98725.72;;;21.53;34.00
40117;BME280;25829;50.228;18.936;2023-05-29T12:08:09;98733.50;;;21.60;34.66
40117;BME280;25829;50.228;18.936;2023-05-29T12:11:10;98730.56;;;21.61;33.96
40117;BME280;25829;50.228;18.936;2023-05-29T12:14:10;98719.56;;;21.53;33.93
40117;BME280;25829;50.228;18.936;2023-05-29T12:17:11;98720.38;;;21.43;33.78
40117;BME280;25829;50.228;18.936;2023-05-29T12:20:13;98721.22;;;21.38;34.03
40117;BME280;25829;50.228;18.936;2023-05-29T12:23:22;98721.50;;;21.37;33.75
40117;BME280;25829;50.228;18.936;2023-05-29T12:26:24;98718.81;;;21.37;33.94
40117;BME280;25829;50.228;18.936;2023-05-29T12:29:30;98712.09;;;21.34;33.92
40117;BME280;25829;50.228;18.936;2023-05-29T12:32:38;98706.97;;;21.43;34.50
40117;BME280;25829;50.228;18.936;2023-05-29T12:35:46;98705.13;;;21.43;33.26
40117;BME280;25829;50.228;18.936;2023-05-29T12:38:51;98697.84;;;21.44;33.93
40117;BME280;25829;50.228;18.936;2023-05-29T12:41:54;98696.25;;;21.38;33.06
40117;BME280;25829;50.228;18.936;2023-05-29T12:44:55;98694.13;;;21.35;33.59
40117;BME280;25829;50.228;18.936;2023-05-29T12:47:57;98693.31;;;21.29;33.28
40117;BME280;25829;50.228;18.936;2023-05-29T12:50:57;98695.22;;;21.23;33.46
40117;BME280;25829;50.228;18.936;2023-05-29T12:53:58;98691.19;;;21.16;33.25
40117;BME280;25829;50.228;18.936;2023-05-29T12:57:00;98689.84;;;21.13;33.53
40117;BME280;25829;50.228;18.936;2023-05-29T13:00:01;98692.28;;;21.20;33.88
40117;BME280;25829;50.228;18.936;2023-05-29T13:03:02;98687.44;;;21.22;32.52
40117;BME280;25829;50.228;18.936;2023-05-29T13:06:03;98692.53;;;21.08;33.27
40117;BME280;25829;50.228;18.936;2023-05-29T13:09:05;98681.78;;;21.13;34.04
40117;BME280;25829;50.228;18.936;2023-05-29T13:12:07;98685.28;;;21.24;33.78
40117;BME280;25829;50.228;18.936;2023-05-29T13:15:10;98685.00;;;21.31;34.02
40117;BME280;25829;50.228;18.936;2023-05-29T13:18:12;98675.34;;;21.30;33.67
40117;BME280;25829;50.228;18.936;2023-05-29T13:21:12;98672.09;;;21.33;34.02
40117;BME280;25829;50.228;18.936;2023-05-29T13:24:13;98675.88;;;21.37;34.07
40117;BME280;25829;50.228;18.936;2023-05-29T13:27:14;98667.03;;;21.31;33.14
40117;BME280;25829;50.228;18.936;2023-05-29T13:30:17;98658.47;;;21.19;33.84
40117;BME280;25829;50.228;18.936;2023-05-29T13:33:18;98658.47;;;21.19;34.58
40117;BME280;25829;50.228;18.936;2023-05-29T13:36:18;98652.81;;;21.31;34.87
40117;BME280;25829;50.228;18.936;2023-05-29T13:39:19;98655.97;;;21.43;34.62
40117;BME280;25829;50.228;18.936;2023-05-29T13:42:21;98653.53;;;21.52;34.37
40117;BME280;25829;50.228;18.936;2023-05-29T13:45:22;98651.38;;;21.54;34.25
40117;BME280;25829;50.228;18.936;2023-05-29T13:48:22;98641.97;;;21.56;34.63
40117;BME280;25829;50.228;18.936;2023-05-29T13:51:23;98649.72;;;21.63;34.51
40117;BME280;25829;50.228;18.936;2023-05-29T13:54:24;98639.53;;;21.60;33.99
40117;BME280;25829;50.228;18.936;2023-05-29T13:57:25;98639.03;;;21.58;34.03
40117;BME280;25829;50.228;18.936;2023-05-29T14:00:26;98639.56;;;21.55;33.74
40117;BME280;25829;50.228;18.936;2023-05-29T14:03:27;98633.38;;;21.59;34.02
40117;BME280;25829;50.228;18.936;2023-05-29T14:06:33;98632.28;;;21.65;34.10
40117;BME280;25829;50.228;18.936;2023-05-29T14:09:34;98635.72;;;21.71;34.01
40117;BME280;25829;50.228;18.936;2023-05-29T14:12:34;98630.59;;;21.75;34.30
40117;BME280;25829;50.228;18.936;2023-05-29T14:15:36;98631.66;;;21.79;34.15
40117;BME280;25829;50.228;18.936;2023-05-29T14:18:37;98630.28;;;21.81;33.98
40117;BME280;25829;50.228;18.936;2023-05-29T14:21:38;98623.06;;;21.77;33.82
40117;BME280;25829;50.228;18.936;2023-05-29T14:24:38;98623.38;;;21.70;33.66
40117;BME280;25829;50.228;18.936;2023-05-29T14:27:39;98628.50;;;21.66;33.78
40117;BME280;25829;50.228;18.936;2023-05-29T14:30:40;98624.22;;;21.65;33.92
40117;BME280;25829;50.228;18.936;2023-05-29T14:33:41;98610.78;;;21.65;33.83
40117;BME280;25829;50.228;18.936;2023-05-29T14:36:41;98624.22;;;21.65;34.01
40117;BME280;25829;50.228;18.936;2023-05-29T14:39:44;98598.47;;;21.64;33.69
40117;BME280;25829;50.228;18.936;2023-05-29T14:42:45;98598.47;;;21.64;33.58
40117;BME280;25829;50.228;18.936;2023-05-29T14:45:46;98609.75;;;21.56;33.58
40117;BME280;25829;50.228;18.936;2023-05-29T14:48:46;98605.72;;;21.59;33.67
40117;BME280;25829;50.228;18.936;2023-05-29T14:51:49;98611.34;;;21.57;33.31
40117;BME280;25829;50.228;18.936;2023-05-29T14:54:50;98609.25;;;21.49;33.32
40117;BME280;25829;50.228;18.936;2023-05-29T14:57:50;98609.28;;;21.44;32.32
40117;BME280;25829;50.228;18.936;2023-05-29T15:00:51;98606.09;;;21.37;33.30
40117;BME280;25829;50.228;18.936;2023-05-29T15:03:52;98602.06;;;21.34;33.81
40117;BME280;25829;50.228;18.936;2023-05-29T15:06:53;98611.22;;;21.33;33.98
40117;BME280;25829;50.228;18.936;2023-05-29T15:09:54;98612.28;;;21.32;34.09
40117;BME280;25829;50.228;18.936;2023-05-29T15:12:55;98602.91;;;21.25;33.86
40117;BME280;25829;50.228;18.936;2023-05-29T15:15:59;98606.38;;;21.25;34.25
40117;BME280;25829;50.228;18.936;2023-05-29T15:19:00;98606.94;;;21.22;34.33
40117;BME280;25829;50.228;18.936;2023-05-29T15:22:01;98612.56;;;21.15;34.24
40117;BME280;25829;50.228;18.936;2023-05-29T15:25:01;98603.75;;;21.10;34.51
40117;BME280;25829;50.228;18.936;2023-05-29T15:28:02;98605.88;;;21.08;34.55
40117;BME280;25829;50.228;18.936;2023-05-29T15:31:03;98606.69;;;21.08;34.62
40117;BME280;25829;50.228;18.936;2023-05-29T15:34:04;98595.69;;;21.10;34.65
40117;BME280;25829;50.228;18.936;2023-05-29T15:37:06;98603.47;;;21.11;34.79
40117;BME280;25829;50.228;18.936;2023-05-29T15:40:07;98599.97;;;21.11;34.96
40117;BME280;25829;50.228;18.936;2023-05-29T15:43:09;98600.53;;;21.08;34.59
40117;BME280;25829;50.228;18.936;2023-05-29T15:46:10;98603.19;;;21.08;34.89
40117;BME280;25829;50.228;18.936;2023-05-29T15:49:11;98602.69;;;21.06;35.10
40117;BME280;25829;50.228;18.936;2023-05-29T15:52:13;98611.53;;;21.01;34.92
40117;BME280;25829;50.228;18.936;2023-05-29T15:55:14;98610.47;;;20.97;34.79
40117;BME280;25829;50.228;18.936;2023-05-29T15:58:15;98603.50;;;20.96;34.28
40117;BME280;25829;50.228;18.936;2023-05-29T16:01:16;98602.44;;;20.97;34.73
40117;BME280;25829;50.228;18.936;2023-05-29T16:04:17;98600.81;;;21.01;34.49
40117;BME280;25829;50.228;18.936;2023-05-29T16:07:17;98602.94;;;21.04;34.53
40117;BME280;25829;50.228;18.936;2023-05-29T16:10:19;98604.53;;;21.05;34.19
40117;BME280;25829;50.228;18.936;2023-05-29T16:13:20;98596.25;;;21.02;33.70
40117;BME280;25829;50.228;18.936;2023-05-29T16:16:20;98604.56;;;21.00;34.29
40117;BME280;25829;50.228;18.936;2023-05-29T16:19:21;98604.28;;;21.02;34.11